sensor_id;sensor_type;location;lat;lon;timestamp;P1;durP1;ratioP1;P2;durP2;ratioP2
68647;SDS011;55632;51.962;16.116;2023-04-01T00:04:37;10.18;;;6.70;;
68647;SDS011;55632;51.962;16.116;2023-04-01T00:09:38;9.38;;;6.20;;
68647;SDS011;55632;51.962;16.116;2023-04-01T00:14:39;10.68;;;6.60;;
68647;SDS011;55632;51.962;16.116;2023-04-01T00:19:40;9.98;;;6.93;;
68647;SDS011;55632;51.962;16.116;2023-04-01T00:24:41;15.13;;;7.82;;
68647;SDS011;55632;51.962;16.116;2023-04-01T00:29:42;9.20;;;5.78;;
68647;SDS011;55632;51.962;16.116;2023-04-01T00:34:44;11.75;;;6.97;;
68647;SDS011;55632;51.962;16.116;2023-04-01T00:39:45;8.93;;;5.65;;
68647;SDS011;55632;51.962;16.116;2023-04-01T00:44:49;7.63;;;5.25;;
68647;SDS011;55632;51.962;16.116;2023-04-01T00:49:51;9.38;;;6.28;;
68647;SDS011;55632;51.962;16.116;2023-04-01T00:54:57;26.88;;;12.35;;
68647;SDS011;55632;51.962;16.116;2023-04-01T01:00:06;11.50;;;6.82;;
68647;SDS011;55632;51.962;16.116;2023-04-01T01:05:14;11.65;;;5.95;;
68647;SDS011;55632;51.962;16.116;2023-04-01T01:31:20;9.10;;;5.40;;
68647;SDS011;55632;51.962;16.116;2023-04-01T01:36:26;8.00;;;4.80;;
68647;SDS011;55632;51.962;16.116;2023-04-01T01:41:36;9.38;;;5.63;;
68647;SDS011;55632;51.962;16.116;2023-04-01T01:46:40;10.73;;;6.50;;
68647;SDS011;55632;51.962;16.116;2023-04-01T01:51:42;9.85;;;4.70;;
68647;SDS011;55632;51.962;16.116;2023-04-01T01:56:49;12.77;;;6.18;;
68647;SDS011;55632;51.962;16.116;2023-04-01T02:01:57;6.35;;;4.35;;
68647;SDS011;55632;51.962;16.116;2023-04-01T02:07:19;9.73;;;4.90;;
68647;SDS011;55632;51.962;16.116;2023-04-01T02:12:27;13.90;;;7.43;;
68647;SDS011;55632;51.962;16.116;2023-04-01T02:17:29;6.38;;;3.63;;
68647;SDS011;55632;51.962;16.116;2023-04-01T02:22:39;6.78;;;3.47;;
68647;SDS011;55632;51.962;16.116;2023-04-01T02:27:45;9.70;;;5.47;;
68647;SDS011;55632;51.962;16.116;2023-04-01T02:32:46;7.50;;;4.50;;
68647;SDS011;55632;51.962;16.116;2023-04-01T02:37:52;5.72;;;3.53;;
68647;SDS011;55632;51.962;16.116;2023-04-01T02:42:54;5.97;;;3.60;;
68647;SDS011;55632;51.962;16.116;2023-04-01T02:47:57;7.32;;;3.53;;
68647;SDS011;55632;51.962;16.116;2023-04-01T02:53:10;5.10;;;3.45;;
68647;SDS011;55632;51.962;16.116;2023-04-01T02:58:11;6.15;;;4.05;;
68647;SDS011;55632;51.962;16.116;2023-04-01T03:03:12;7.40;;;4.20;;
68647;SDS011;55632;51.962;16.116;2023-04-01T03:08:14;5.60;;;3.67;;
68647;SDS011;55632;51.962;16.116;2023-04-01T03:13:15;4.95;;;3.15;;
68647;SDS011;55632;51.962;16.116;2023-04-01T03:18:17;3.60;;;3.03;;
68647;SDS011;55632;51.962;16.116;2023-04-01T03:23:18;8.18;;;3.60;;
68647;SDS011;55632;51.962;16.116;2023-04-01T03:28:21;6.10;;;3.47;;
68647;SDS011;55632;51.962;16.116;2023-04-01T03:33:22;13.63;;;5.68;;
68647;SDS011;55632;51.962;16.116;2023-04-01T03:38:23;5.75;;;3.30;;
68647;SDS011;55632;51.962;16.116;2023-04-01T03:43:24;5.07;;;3.63;;
68647;SDS011;55632;51.962;16.116;2023-04-01T03:48:26;4.18;;;3.55;;
68647;SDS011;55632;51.962;16.116;2023-04-01T03:53:44;4.70;;;3.45;;
68647;SDS011;55632;51.962;16.116;2023-04-01T03:58:48;6.05;;;3.30;;
68647;SDS011;55632;51.962;16.116;2023-04-01T04:03:50;7.15;;;3.35;;
68647;SDS011;55632;51.962;16.116;2023-04-01T04:08:59;4.93;;;3.70;;
68647;SDS011;55632;51.962;16.116;2023-04-01T04:14:03;6.68;;;3.63;;
68647;SDS011;55632;51.962;16.116;2023-04-01T04:19:07;4.40;;;3.35;;
68647;SDS011;55632;51.962;16.116;2023-04-01T04:24:11;5.28;;;3.97;;
68647;SDS011;55632;51.962;16.116;2023-04-01T04:29:35;5.22;;;3.70;;
68647;SDS011;55632;51.962;16.116;2023-04-01T04:34:36;6.88;;;4.32;;
68647;SDS011;55632;51.962;16.116;2023-04-01T04:39:39;6.32;;;3.88;;
68647;SDS011;55632;51.962;16.116;2023-04-01T04:44:43;4.97;;;4.43;;
68647;SDS011;55632;51.962;16.116;2023-04-01T04:49:45;8.30;;;4.97;;
68647;SDS011;55632;51.962;16.116;2023-04-01T04:54:46;12.75;;;8.05;;
68647;SDS011;55632;51.962;16.116;2023-04-01T04:59:50;10.00;;;5.07;;
68647;SDS011;55632;51.962;16.116;2023-04-01T05:05:09;8.10;;;5.47;;
68647;SDS011;55632;51.962;16.116;2023-04-01T05:10:13;12.70;;;6.25;;
68647;SDS011;55632;51.962;16.116;2023-04-01T05:15:14;9.10;;;6.53;;
68647;SDS011;55632;51.962;16.116;2023-04-01T05:20:16;11.18;;;6.43;;
68647;SDS011;55632;51.962;16.116;2023-04-01T05:25:20;11.32;;;6.25;;
68647;SDS011;55632;51.962;16.116;2023-04-01T05:30:26;9.23;;;6.35;;
68647;SDS011;55632;51.962;16.116;2023-04-01T05:35:33;12.65;;;8.70;;
68647;SDS011;55632;51.962;16.116;2023-04-01T05:40:34;13.10;;;7.63;;
68647;SDS011;55632;51.962;16.116;2023-04-01T05:45:35;9.55;;;6.53;;
68647;SDS011;55632;51.962;16.116;2023-04-01T05:50:46;9.65;;;6.97;;
68647;SDS011;55632;51.962;16.116;2023-04-01T05:55:47;25.02;;;15.45;;
68647;SDS011;55632;51.962;16.116;2023-04-01T06:00:51;13.27;;;9.55;;
68647;SDS011;55632;51.962;16.116;2023-04-01T06:05:54;9.75;;;7.00;;
68647;SDS011;55632;51.962;16.116;2023-04-01T06:22:22;8.40;;;6.70;;
68647;SDS011;55632;51.962;16.116;2023-04-01T06:38:49;7.70;;;6.20;;
68647;SDS011;55632;51.962;16.116;2023-04-01T07:00:54;5.93;;;4.95;;
68647;SDS011;55632;51.962;16.116;2023-04-01T07:06:05;8.48;;;5.97;;
68647;SDS011;55632;51.962;16.116;2023-04-01T07:11:19;7.05;;;5.55;;
68647;SDS011;55632;51.962;16.116;2023-04-01T07:27:44;11.18;;;5.00;;
68647;SDS011;55632;51.962;16.116;2023-04-01T07:38:22;5.63;;;3.78;;
68647;SDS011;55632;51.962;16.116;2023-04-01T07:43:41;3.97;;;3.13;;
68647;SDS011;55632;51.962;16.116;2023-04-01T07:49:11;7.03;;;4.47;;
68647;SDS011;55632;51.962;16.116;2023-04-01T07:54:32;4.82;;;3.30;;
68647;SDS011;55632;51.962;16.116;2023-04-01T08:05:50;4.97;;;3.78;;
68647;SDS011;55632;51.962;16.116;2023-04-01T08:11:10;4.93;;;3.57;;
68647;SDS011;55632;51.962;16.116;2023-04-01T08:22:09;8.23;;;5.03;;
68647;SDS011;55632;51.962;16.116;2023-04-01T08:27:20;8.82;;;6.63;;
68647;SDS011;55632;51.962;16.116;2023-04-01T08:32:29;10.77;;;7.47;;
68647;SDS011;55632;51.962;16.116;2023-04-01T08:37:39;6.75;;;4.90;;
68647;SDS011;55632;51.962;16.116;2023-04-01T09:04:57;7.47;;;4.03;;
68647;SDS011;55632;51.962;16.116;2023-04-01T09:21:09;5.28;;;4.68;;
68647;SDS011;55632;51.962;16.116;2023-04-01T09:26:37;4.22;;;3.60;;
68647;SDS011;55632;51.962;16.116;2023-04-01T09:53:34;14.60;;;9.57;;
68647;SDS011;55632;51.962;16.116;2023-04-01T10:10:26;7.03;;;5.65;;
68647;SDS011;55632;51.962;16.116;2023-04-01T10:16:03;23.55;;;15.48;;
68647;SDS011;55632;51.962;16.116;2023-04-01T10:27:26;5.45;;;3.92;;
68647;SDS011;55632;51.962;16.116;2023-04-01T11:18:12;12.05;;;4.47;;
68647;SDS011;55632;51.962;16.116;2023-04-01T11:34:07;20.10;;;7.15;;
68647;SDS011;55632;51.962;16.116;2023-04-01T11:44:39;4.05;;;2.92;;
68647;SDS011;55632;51.962;16.116;2023-04-01T12:33:32;10.70;;;7.78;;
68647;SDS011;55632;51.962;16.116;2023-04-01T12:38:43;12.02;;;8.15;;
68647;SDS011;55632;51.962;16.116;2023-04-01T12:49:55;13.73;;;9.40;;
68647;SDS011;55632;51.962;16.116;2023-04-01T13:11:30;13.98;;;9.70;;
68647;SDS011;55632;51.962;16.116;2023-04-01T13:27:42;15.75;;;9.80;;
68647;SDS011;55632;51.962;16.116;2023-04-01T13:37:52;18.10;;;11.05;;
68647;SDS011;55632;51.962;16.116;2023-04-01T13:43:16;19.65;;;11.45;;
68647;SDS011;55632;51.962;16.116;2023-04-01T13:59:57;18.85;;;10.60;;
68647;SDS011;55632;51.962;16.116;2023-04-01T14:16:13;21.33;;;11.40;;
68647;SDS011;55632;51.962;16.116;2023-04-01T14:43:36;447.60;;;154.40;;
68647;SDS011;55632;51.962;16.116;2023-04-01T14:54:30;580.47;;;165.35;;
68647;SDS011;55632;51.962;16.116;2023-04-01T14:59:38;500.65;;;139.85;;
68647;SDS011;55632;51.962;16.116;2023-04-01T15:09:58;443.73;;;109.35;;
68647;SDS011;55632;51.962;16.116;2023-04-01T15:16:02;368.92;;;83.72;;
68647;SDS011;55632;51.962;16.116;2023-04-01T15:37:26;315.80;;;98.95;;
68647;SDS011;55632;51.962;16.116;2023-04-01T15:47:59;85.95;;;41.53;;
68647;SDS011;55632;51.962;16.116;2023-04-01T15:53:18;153.53;;;56.37;;
68647;SDS011;55632;51.962;16.116;2023-04-01T16:31:30;14.55;;;11.95;;
68647;SDS011;55632;51.962;16.116;2023-04-01T16:36:44;18.15;;;12.98;;
68647;SDS011;55632;51.962;16.116;2023-04-01T16:41:52;13.00;;;9.15;;
68647;SDS011;55632;51.962;16.116;2023-04-01T16:47:08;12.75;;;8.52;;
68647;SDS011;55632;51.962;16.116;2023-04-01T16:52:15;12.50;;;8.65;;
68647;SDS011;55632;51.962;16.116;2023-04-01T17:02:27;10.05;;;8.82;;
68647;SDS011;55632;51.962;16.116;2023-04-01T17:24:00;12.55;;;9.75;;
68647;SDS011;55632;51.962;16.116;2023-04-01T17:29:38;15.32;;;9.57;;
68647;SDS011;55632;51.962;16.116;2023-04-01T17:40:48;16.08;;;10.93;;
68647;SDS011;55632;51.962;16.116;2023-04-01T17:46:54;18.90;;;11.40;;
68647;SDS011;55632;51.962;16.116;2023-04-01T18:02:50;14.27;;;10.77;;
68647;SDS011;55632;51.962;16.116;2023-04-01T18:07:36;13.52;;;10.52;;
68647;SDS011;55632;51.962;16.116;2023-04-01T18:44:27;11.77;;;8.73;;
68647;SDS011;55632;51.962;16.116;2023-04-01T19:00:08;15.68;;;10.45;;
68647;SDS011;55632;51.962;16.116;2023-04-01T19:05:39;11.75;;;9.05;;
68647;SDS011;55632;51.962;16.116;2023-04-01T19:11:25;13.80;;;9.85;;
68647;SDS011;55632;51.962;16.116;2023-04-01T19:21:54;14.40;;;10.32;;
68647;SDS011;55632;51.962;16.116;2023-04-01T19:27:23;16.17;;;11.32;;
68647;SDS011;55632;51.962;16.116;2023-04-01T19:37:50;13.57;;;9.90;;
68647;SDS011;55632;51.962;16.116;2023-04-01T19:53:18;10.98;;;8.35;;
68647;SDS011;55632;51.962;16.116;2023-04-01T19:58:56;14.00;;;8.60;;
68647;SDS011;55632;51.962;16.116;2023-04-01T20:04:13;14.02;;;9.75;;
68647;SDS011;55632;51.962;16.116;2023-04-01T20:25:39;14.85;;;9.90;;
68647;SDS011;55632;51.962;16.116;2023-04-01T20:41:02;12.45;;;7.90;;
68647;SDS011;55632;51.962;16.116;2023-04-01T20:46:20;7.53;;;5.93;;
68647;SDS011;55632;51.962;16.116;2023-04-01T20:51:31;11.15;;;8.27;;
68647;SDS011;55632;51.962;16.116;2023-04-01T21:07:49;9.60;;;7.10;;
68647;SDS011;55632;51.962;16.116;2023-04-01T21:34:31;5.45;;;4.85;;
68647;SDS011;55632;51.962;16.116;2023-04-01T22:12:08;8.07;;;5.15;;
68647;SDS011;55632;51.962;16.116;2023-04-01T22:17:28;6.88;;;4.88;;
68647;SDS011;55632;51.962;16.116;2023-04-01T22:27:55;7.43;;;5.13;;
68647;SDS011;55632;51.962;16.116;2023-04-01T22:43:40;8.65;;;5.47;;
68647;SDS011;55632;51.962;16.116;2023-04-01T22:48:47;8.75;;;5.43;;
68647;SDS011;55632;51.962;16.116;2023-04-01T22:53:59;5.57;;;4.53;;
68647;SDS011;55632;51.962;16.116;2023-04-01T22:59:20;6.88;;;4.50;;
68647;SDS011;55632;51.962;16.116;2023-04-01T23:04:29;5.70;;;4.57;;
68647;SDS011;55632;51.962;16.116;2023-04-01T23:09:33;7.55;;;5.25;;
68647;SDS011;55632;51.962;16.116;2023-04-01T23:14:44;8.55;;;5.07;;
68647;SDS011;55632;51.962;16.116;2023-04-01T23:19:51;8.00;;;5.60;;
68647;SDS011;55632;51.962;16.116;2023-04-01T23:25:39;6.68;;;5.32;;
68647;SDS011;55632;51.962;16.116;2023-04-01T23:30:46;8.70;;;5.43;;
68647;SDS011;55632;51.962;16.116;2023-04-01T23:35:49;7.80;;;5.47;;
68647;SDS011;55632;51.962;16.116;2023-04-01T23:40:53;7.72;;;5.80;;
68647;SDS011;55632;51.962;16.116;2023-04-01T23:45:55;13.00;;;6.63;;
68647;SDS011;55632;51.962;16.116;2023-04-01T23:50:56;10.02;;;6.13;;
68647;SDS011;55632;51.962;16.116;2023-04-01T23:55:58;13.57;;;7.05;;
